This is the latest recevied weather packets stored in our database for station/object VA3WWD-2. If no packets are shown the sender has not sent any weather packets the latest 10 day(s).
| Time | Temp. | Humidity | Pressure | Rain* | Wind** | Luminosity | Snow |
|---|---|---|---|---|---|---|---|
| 1778178692 | 7.22° C | 35% | - | 0 mm | 0 m/s | - | - |
| 1778178394 | 7.78° C | 31% | - | 0 mm | 0 m/s | - | - |
| 1778178096 | 7.78° C | 36% | - | 0 mm | 0 m/s | - | - |
| 1778177795 | 7.78° C | 35% | - | 0 mm | 0 m/s | - | - |
| 1778177497 | 7.22° C | 36% | - | 0 mm | 0 m/s | - | - |
| 1778177199 | 6.11° C | 39% | - | 0 mm | 0 m/s | - | - |
| 1778176898 | 6.67° C | 37% | - | 0 mm | 0 m/s | - | - |
| 1778176600 | 6.67° C | 39% | - | 0 mm | 0 m/s | - | - |
| 1778176302 | 7.22° C | 36% | - | 0 mm | 0 m/s | - | - |
| 1778176001 | 6.67° C | 36% | - | 0 mm | 0 m/s | - | - |
| 1778175104 | 8.33° C | 33% | - | 0 mm | 0 m/s | - | - |
| 1778174806 | 8.89° C | 34% | - | 0 mm | 0 m/s | - | - |
| 1778174508 | 8.33° C | 35% | - | 0 mm | 0 m/s | - | - |
| 1778173910 | 8.33° C | 36% | - | 0 mm | 0 m/s | - | - |
| 1778173611 | 7.22° C | 36% | - | 0 mm | 0 m/s | - | - |
| 1778173310 | 7.78° C | 37% | - | 0 mm | 0 m/s | - | - |
| 1778172714 | 7.22° C | 36% | - | 0 mm | 0 m/s | - | - |
| 1778172414 | 7.78° C | 38% | - | 0 mm | 0 m/s | - | - |
| 1778172116 | 6.11° C | 41% | - | 0 mm | 0 m/s | - | - |
| 1778171516 | 6.11° C | 40% | - | 0 mm | 0 m/s | - | - |
| 1778171218 | 6.67° C | 39% | - | 0 mm | 0 m/s | - | - |
| 1778170920 | 6.67° C | 37% | - | 0 mm | 0 m/s | - | - |
| 1778170619 | 7.78° C | 35% | - | 0 mm | 0 m/s | - | - |
| 1778170023 | 7.22° C | 36% | - | 0 mm | 0 m/s | - | - |
| 1778169722 | 7.22° C | 38% | - | 0 mm | 0 m/s | - | - |
* Rain latest hour (hover to see other rain measurements)
** Current wind speed in m/s (hover to see current wind gust speed)